sensor_id;sensor_type;location;lat;lon;timestamp;P1;durP1;ratioP1;P2;durP2;ratioP2
84521;SDS011;74758;50.066;20.008;2024-01-15T00:01:46;7.90;;;4.50;;
84521;SDS011;74758;50.066;20.008;2024-01-15T00:03:47;9.10;;;4.70;;
84521;SDS011;74758;50.066;20.008;2024-01-15T00:05:49;8.20;;;4.20;;
84521;SDS011;74758;50.066;20.008;2024-01-15T00:07:51;6.80;;;4.40;;
84521;SDS011;74758;50.066;20.008;2024-01-15T00:09:53;6.70;;;4.10;;
84521;SDS011;74758;50.066;20.008;2024-01-15T00:11:54;6.80;;;4.10;;
84521;SDS011;74758;50.066;20.008;2024-01-15T00:13:56;4.10;;;2.90;;
84521;SDS011;74758;50.066;20.008;2024-01-15T00:15:57;7.70;;;4.50;;
84521;SDS011;74758;50.066;20.008;2024-01-15T00:17:59;8.70;;;4.40;;
84521;SDS011;74758;50.066;20.008;2024-01-15T00:20:01;6.90;;;4.70;;
84521;SDS011;74758;50.066;20.008;2024-01-15T00:22:03;8.20;;;4.40;;
84521;SDS011;74758;50.066;20.008;2024-01-15T00:24:05;6.90;;;4.00;;
84521;SDS011;74758;50.066;20.008;2024-01-15T00:26:07;7.20;;;4.50;;
84521;SDS011;74758;50.066;20.008;2024-01-15T00:28:11;8.40;;;6.00;;
84521;SDS011;74758;50.066;20.008;2024-01-15T00:30:12;5.80;;;3.80;;
84521;SDS011;74758;50.066;20.008;2024-01-15T00:32:15;6.30;;;3.70;;
84521;SDS011;74758;50.066;20.008;2024-01-15T00:34:16;7.40;;;4.80;;
84521;SDS011;74758;50.066;20.008;2024-01-15T00:36:18;7.90;;;4.60;;
84521;SDS011;74758;50.066;20.008;2024-01-15T00:38:19;7.20;;;3.60;;
84521;SDS011;74758;50.066;20.008;2024-01-15T00:40:21;7.90;;;4.30;;
84521;SDS011;74758;50.066;20.008;2024-01-15T00:42:23;6.30;;;3.90;;
84521;SDS011;74758;50.066;20.008;2024-01-15T00:44:25;5.10;;;3.30;;
84521;SDS011;74758;50.066;20.008;2024-01-15T00:46:26;7.40;;;3.90;;
84521;SDS011;74758;50.066;20.008;2024-01-15T00:48:28;8.10;;;4.40;;
84521;SDS011;74758;50.066;20.008;2024-01-15T00:50:30;8.80;;;4.20;;
84521;SDS011;74758;50.066;20.008;2024-01-15T00:52:32;6.20;;;3.90;;
84521;SDS011;74758;50.066;20.008;2024-01-15T00:54:34;5.80;;;3.80;;
84521;SDS011;74758;50.066;20.008;2024-01-15T00:56:36;4.70;;;2.90;;
84521;SDS011;74758;50.066;20.008;2024-01-15T00:58:38;6.50;;;4.80;;
84521;SDS011;74758;50.066;20.008;2024-01-15T01:00:39;6.80;;;3.80;;
84521;SDS011;74758;50.066;20.008;2024-01-15T01:02:42;7.40;;;4.50;;
84521;SDS011;74758;50.066;20.008;2024-01-15T01:04:44;6.60;;;3.90;;
84521;SDS011;74758;50.066;20.008;2024-01-15T01:06:46;7.70;;;3.90;;
84521;SDS011;74758;50.066;20.008;2024-01-15T01:08:47;6.70;;;4.10;;
84521;SDS011;74758;50.066;20.008;2024-01-15T01:10:49;7.20;;;3.80;;
84521;SDS011;74758;50.066;20.008;2024-01-15T01:12:51;8.10;;;4.70;;
84521;SDS011;74758;50.066;20.008;2024-01-15T01:14:52;8.80;;;4.60;;
84521;SDS011;74758;50.066;20.008;2024-01-15T01:16:54;6.50;;;4.20;;
84521;SDS011;74758;50.066;20.008;2024-01-15T01:18:55;7.70;;;5.00;;
84521;SDS011;74758;50.066;20.008;2024-01-15T01:20:57;8.90;;;4.60;;
84521;SDS011;74758;50.066;20.008;2024-01-15T01:22:59;7.10;;;4.40;;
84521;SDS011;74758;50.066;20.008;2024-01-15T01:25:01;6.40;;;4.40;;
84521;SDS011;74758;50.066;20.008;2024-01-15T01:27:03;6.50;;;3.50;;
84521;SDS011;74758;50.066;20.008;2024-01-15T01:29:05;8.00;;;5.00;;
84521;SDS011;74758;50.066;20.008;2024-01-15T01:31:07;8.10;;;4.60;;
84521;SDS011;74758;50.066;20.008;2024-01-15T01:33:10;7.20;;;4.00;;
84521;SDS011;74758;50.066;20.008;2024-01-15T01:35:12;8.00;;;4.30;;
84521;SDS011;74758;50.066;20.008;2024-01-15T01:37:14;6.00;;;4.00;;
84521;SDS011;74758;50.066;20.008;2024-01-15T01:39:16;10.20;;;4.90;;
84521;SDS011;74758;50.066;20.008;2024-01-15T01:41:18;7.70;;;4.50;;
84521;SDS011;74758;50.066;20.008;2024-01-15T01:43:19;8.30;;;4.60;;
84521;SDS011;74758;50.066;20.008;2024-01-15T01:45:21;5.30;;;3.40;;
84521;SDS011;74758;50.066;20.008;2024-01-15T01:47:23;7.00;;;3.90;;
84521;SDS011;74758;50.066;20.008;2024-01-15T01:49:28;7.00;;;4.10;;
84521;SDS011;74758;50.066;20.008;2024-01-15T01:51:29;6.20;;;3.80;;
84521;SDS011;74758;50.066;20.008;2024-01-15T01:53:32;7.00;;;4.20;;
84521;SDS011;74758;50.066;20.008;2024-01-15T01:55:36;6.40;;;3.60;;
84521;SDS011;74758;50.066;20.008;2024-01-15T01:57:39;6.90;;;3.90;;
84521;SDS011;74758;50.066;20.008;2024-01-15T01:59:42;6.40;;;3.70;;
84521;SDS011;74758;50.066;20.008;2024-01-15T02:01:44;5.50;;;3.80;;
84521;SDS011;74758;50.066;20.008;2024-01-15T02:03:46;5.70;;;3.60;;
84521;SDS011;74758;50.066;20.008;2024-01-15T02:05:48;4.80;;;3.10;;
84521;SDS011;74758;50.066;20.008;2024-01-15T02:07:51;6.10;;;3.50;;
84521;SDS011;74758;50.066;20.008;2024-01-15T02:09:52;5.30;;;3.80;;
84521;SDS011;74758;50.066;20.008;2024-01-15T02:11:54;6.60;;;4.10;;
84521;SDS011;74758;50.066;20.008;2024-01-15T02:13:56;6.60;;;3.50;;
84521;SDS011;74758;50.066;20.008;2024-01-15T02:15:58;6.30;;;3.30;;
84521;SDS011;74758;50.066;20.008;2024-01-15T02:18:00;6.50;;;3.40;;
84521;SDS011;74758;50.066;20.008;2024-01-15T02:20:05;8.00;;;3.40;;
84521;SDS011;74758;50.066;20.008;2024-01-15T02:22:07;5.50;;;4.60;;
84521;SDS011;74758;50.066;20.008;2024-01-15T02:24:09;5.50;;;3.50;;
84521;SDS011;74758;50.066;20.008;2024-01-15T02:26:11;5.40;;;3.40;;
84521;SDS011;74758;50.066;20.008;2024-01-15T02:28:14;5.40;;;3.60;;
84521;SDS011;74758;50.066;20.008;2024-01-15T02:30:18;5.90;;;3.40;;
84521;SDS011;74758;50.066;20.008;2024-01-15T02:32:20;5.70;;;3.20;;
84521;SDS011;74758;50.066;20.008;2024-01-15T02:34:22;6.00;;;3.40;;
84521;SDS011;74758;50.066;20.008;2024-01-15T02:36:23;5.40;;;3.40;;
84521;SDS011;74758;50.066;20.008;2024-01-15T02:38:25;5.20;;;3.30;;
84521;SDS011;74758;50.066;20.008;2024-01-15T02:40:27;5.50;;;3.20;;
84521;SDS011;74758;50.066;20.008;2024-01-15T02:42:28;5.10;;;3.30;;
84521;SDS011;74758;50.066;20.008;2024-01-15T02:44:30;4.70;;;3.10;;
84521;SDS011;74758;50.066;20.008;2024-01-15T02:46:32;6.10;;;3.00;;
84521;SDS011;74758;50.066;20.008;2024-01-15T02:48:33;5.40;;;3.20;;
84521;SDS011;74758;50.066;20.008;2024-01-15T02:50:36;6.70;;;4.10;;
84521;SDS011;74758;50.066;20.008;2024-01-15T02:52:38;6.10;;;3.10;;
84521;SDS011;74758;50.066;20.008;2024-01-15T02:54:40;4.70;;;2.80;;
84521;SDS011;74758;50.066;20.008;2024-01-15T02:56:42;7.50;;;3.60;;
84521;SDS011;74758;50.066;20.008;2024-01-15T02:58:43;5.60;;;3.40;;
84521;SDS011;74758;50.066;20.008;2024-01-15T03:00:45;4.80;;;2.70;;
84521;SDS011;74758;50.066;20.008;2024-01-15T03:02:48;3.10;;;2.00;;
84521;SDS011;74758;50.066;20.008;2024-01-15T03:04:51;5.30;;;2.70;;
84521;SDS011;74758;50.066;20.008;2024-01-15T03:06:53;4.00;;;2.70;;
84521;SDS011;74758;50.066;20.008;2024-01-15T03:08:55;6.30;;;3.50;;
84521;SDS011;74758;50.066;20.008;2024-01-15T03:10:56;3.70;;;2.00;;
84521;SDS011;74758;50.066;20.008;2024-01-15T03:12:58;4.30;;;3.40;;
84521;SDS011;74758;50.066;20.008;2024-01-15T03:14:59;6.10;;;2.70;;
84521;SDS011;74758;50.066;20.008;2024-01-15T03:17:01;2.00;;;1.40;;
84521;SDS011;74758;50.066;20.008;2024-01-15T03:19:03;5.20;;;3.40;;
84521;SDS011;74758;50.066;20.008;2024-01-15T03:21:05;5.00;;;2.60;;
84521;SDS011;74758;50.066;20.008;2024-01-15T03:23:07;3.40;;;2.50;;
84521;SDS011;74758;50.066;20.008;2024-01-15T03:25:09;5.90;;;4.30;;
84521;SDS011;74758;50.066;20.008;2024-01-15T03:27:10;2.20;;;1.30;;
84521;SDS011;74758;50.066;20.008;2024-01-15T03:29:12;3.10;;;2.60;;
84521;SDS011;74758;50.066;20.008;2024-01-15T03:31:14;6.20;;;5.60;;
84521;SDS011;74758;50.066;20.008;2024-01-15T03:33:16;5.60;;;3.00;;
84521;SDS011;74758;50.066;20.008;2024-01-15T03:35:18;6.40;;;3.00;;
84521;SDS011;74758;50.066;20.008;2024-01-15T03:37:20;5.50;;;2.70;;
84521;SDS011;74758;50.066;20.008;2024-01-15T03:39:21;2.90;;;1.70;;
84521;SDS011;74758;50.066;20.008;2024-01-15T03:41:23;4.10;;;2.70;;
84521;SDS011;74758;50.066;20.008;2024-01-15T03:43:25;9.90;;;2.50;;
84521;SDS011;74758;50.066;20.008;2024-01-15T03:45:30;5.90;;;3.40;;
84521;SDS011;74758;50.066;20.008;2024-01-15T03:47:32;6.40;;;3.60;;
84521;SDS011;74758;50.066;20.008;2024-01-15T03:49:33;5.50;;;3.60;;
84521;SDS011;74758;50.066;20.008;2024-01-15T03:51:35;4.50;;;3.00;;
84521;SDS011;74758;50.066;20.008;2024-01-15T03:53:38;6.40;;;3.50;;
84521;SDS011;74758;50.066;20.008;2024-01-15T03:55:40;4.40;;;3.30;;
84521;SDS011;74758;50.066;20.008;2024-01-15T03:57:41;5.00;;;3.30;;
84521;SDS011;74758;50.066;20.008;2024-01-15T03:59:43;4.40;;;2.50;;
84521;SDS011;74758;50.066;20.008;2024-01-15T04:01:51;2.20;;;1.60;;
84521;SDS011;74758;50.066;20.008;2024-01-15T04:03:53;5.10;;;2.70;;
84521;SDS011;74758;50.066;20.008;2024-01-15T04:05:55;5.60;;;3.10;;
84521;SDS011;74758;50.066;20.008;2024-01-15T04:07:57;5.40;;;3.50;;
84521;SDS011;74758;50.066;20.008;2024-01-15T04:09:58;4.60;;;2.80;;
84521;SDS011;74758;50.066;20.008;2024-01-15T04:12:01;2.50;;;1.80;;
84521;SDS011;74758;50.066;20.008;2024-01-15T04:14:02;2.90;;;1.90;;
84521;SDS011;74758;50.066;20.008;2024-01-15T04:16:04;4.20;;;2.70;;
84521;SDS011;74758;50.066;20.008;2024-01-15T04:18:06;5.50;;;4.40;;
84521;SDS011;74758;50.066;20.008;2024-01-15T04:20:07;4.50;;;3.00;;
84521;SDS011;74758;50.066;20.008;2024-01-15T04:22:10;3.20;;;2.50;;
84521;SDS011;74758;50.066;20.008;2024-01-15T04:24:11;3.70;;;3.00;;
84521;SDS011;74758;50.066;20.008;2024-01-15T04:26:13;3.90;;;2.40;;
84521;SDS011;74758;50.066;20.008;2024-01-15T04:28:14;3.20;;;2.20;;
84521;SDS011;74758;50.066;20.008;2024-01-15T04:30:16;4.40;;;2.40;;
84521;SDS011;74758;50.066;20.008;2024-01-15T04:32:18;4.40;;;2.90;;
84521;SDS011;74758;50.066;20.008;2024-01-15T04:34:21;4.40;;;3.40;;
84521;SDS011;74758;50.066;20.008;2024-01-15T04:36:22;3.30;;;2.00;;
84521;SDS011;74758;50.066;20.008;2024-01-15T04:38:24;3.70;;;2.00;;
84521;SDS011;74758;50.066;20.008;2024-01-15T04:40:26;2.90;;;1.70;;
84521;SDS011;74758;50.066;20.008;2024-01-15T04:42:29;3.50;;;2.20;;
84521;SDS011;74758;50.066;20.008;2024-01-15T04:44:30;4.40;;;2.10;;
84521;SDS011;74758;50.066;20.008;2024-01-15T04:46:32;4.90;;;3.00;;
84521;SDS011;74758;50.066;20.008;2024-01-15T04:48:34;3.50;;;1.80;;
84521;SDS011;74758;50.066;20.008;2024-01-15T04:50:36;3.20;;;2.40;;
84521;SDS011;74758;50.066;20.008;2024-01-15T04:52:37;3.30;;;2.50;;
84521;SDS011;74758;50.066;20.008;2024-01-15T04:54:39;3.30;;;2.00;;
84521;SDS011;74758;50.066;20.008;2024-01-15T04:56:41;5.00;;;2.30;;
84521;SDS011;74758;50.066;20.008;2024-01-15T04:58:42;3.50;;;2.90;;
84521;SDS011;74758;50.066;20.008;2024-01-15T05:00:44;1.90;;;1.20;;
84521;SDS011;74758;50.066;20.008;2024-01-15T05:02:46;5.00;;;3.10;;
84521;SDS011;74758;50.066;20.008;2024-01-15T05:04:48;3.20;;;2.40;;
84521;SDS011;74758;50.066;20.008;2024-01-15T05:06:49;4.60;;;2.20;;
84521;SDS011;74758;50.066;20.008;2024-01-15T05:08:51;3.90;;;2.60;;
84521;SDS011;74758;50.066;20.008;2024-01-15T05:10:53;3.70;;;1.90;;
84521;SDS011;74758;50.066;20.008;2024-01-15T05:12:54;3.20;;;2.30;;
84521;SDS011;74758;50.066;20.008;2024-01-15T05:14:56;3.00;;;2.10;;
84521;SDS011;74758;50.066;20.008;2024-01-15T05:16:58;6.20;;;3.20;;
84521;SDS011;74758;50.066;20.008;2024-01-15T05:18:59;3.90;;;2.40;;
84521;SDS011;74758;50.066;20.008;2024-01-15T05:21:01;3.50;;;2.10;;
84521;SDS011;74758;50.066;20.008;2024-01-15T05:23:04;2.70;;;2.10;;
84521;SDS011;74758;50.066;20.008;2024-01-15T05:25:05;5.10;;;2.90;;
84521;SDS011;74758;50.066;20.008;2024-01-15T05:27:07;3.90;;;3.30;;
84521;SDS011;74758;50.066;20.008;2024-01-15T05:29:09;4.20;;;2.30;;
84521;SDS011;74758;50.066;20.008;2024-01-15T05:31:11;2.50;;;2.00;;
84521;SDS011;74758;50.066;20.008;2024-01-15T05:33:13;3.70;;;2.20;;
84521;SDS011;74758;50.066;20.008;2024-01-15T05:35:15;2.60;;;2.20;;
84521;SDS011;74758;50.066;20.008;2024-01-15T05:37:17;4.50;;;2.70;;
84521;SDS011;74758;50.066;20.008;2024-01-15T05:39:18;3.10;;;2.20;;
84521;SDS011;74758;50.066;20.008;2024-01-15T05:41:23;3.50;;;2.30;;
84521;SDS011;74758;50.066;20.008;2024-01-15T05:43:25;2.60;;;1.30;;
84521;SDS011;74758;50.066;20.008;2024-01-15T05:45:27;3.00;;;2.60;;
84521;SDS011;74758;50.066;20.008;2024-01-15T05:47:28;4.00;;;3.50;;
84521;SDS011;74758;50.066;20.008;2024-01-15T05:49:30;4.80;;;2.20;;
84521;SDS011;74758;50.066;20.008;2024-01-15T05:51:32;5.20;;;4.80;;
84521;SDS011;74758;50.066;20.008;2024-01-15T05:53:34;3.30;;;2.40;;
84521;SDS011;74758;50.066;20.008;2024-01-15T05:55:36;2.80;;;1.70;;
84521;SDS011;74758;50.066;20.008;2024-01-15T05:57:39;4.30;;;2.20;;
84521;SDS011;74758;50.066;20.008;2024-01-15T05:59:40;4.40;;;2.80;;
84521;SDS011;74758;50.066;20.008;2024-01-15T06:01:42;3.70;;;2.00;;
84521;SDS011;74758;50.066;20.008;2024-01-15T06:03:44;3.60;;;2.40;;
84521;SDS011;74758;50.066;20.008;2024-01-15T06:05:45;4.50;;;2.60;;
84521;SDS011;74758;50.066;20.008;2024-01-15T06:07:47;2.60;;;1.80;;
84521;SDS011;74758;50.066;20.008;2024-01-15T06:09:49;2.80;;;1.70;;
84521;SDS011;74758;50.066;20.008;2024-01-15T06:11:51;4.60;;;2.90;;
84521;SDS011;74758;50.066;20.008;2024-01-15T06:13:53;3.40;;;2.50;;
84521;SDS011;74758;50.066;20.008;2024-01-15T06:15:54;2.90;;;2.10;;
84521;SDS011;74758;50.066;20.008;2024-01-15T06:17:56;2.90;;;1.70;;
84521;SDS011;74758;50.066;20.008;2024-01-15T06:19:58;4.00;;;3.60;;
84521;SDS011;74758;50.066;20.008;2024-01-15T06:22:00;3.90;;;2.10;;
84521;SDS011;74758;50.066;20.008;2024-01-15T06:24:02;4.10;;;2.60;;
84521;SDS011;74758;50.066;20.008;2024-01-15T06:26:04;4.20;;;2.90;;
84521;SDS011;74758;50.066;20.008;2024-01-15T06:28:06;4.50;;;2.10;;
84521;SDS011;74758;50.066;20.008;2024-01-15T06:30:08;3.20;;;1.90;;
84521;SDS011;74758;50.066;20.008;2024-01-15T06:32:10;4.30;;;2.80;;
84521;SDS011;74758;50.066;20.008;2024-01-15T06:34:12;3.90;;;2.30;;
84521;SDS011;74758;50.066;20.008;2024-01-15T06:36:14;5.10;;;3.40;;
84521;SDS011;74758;50.066;20.008;2024-01-15T06:40:19;3.10;;;2.00;;
84521;SDS011;74758;50.066;20.008;2024-01-15T06:42:20;3.60;;;2.60;;
84521;SDS011;74758;50.066;20.008;2024-01-15T06:44:23;4.50;;;2.60;;
84521;SDS011;74758;50.066;20.008;2024-01-15T06:46:25;3.70;;;1.80;;
84521;SDS011;74758;50.066;20.008;2024-01-15T06:48:27;4.40;;;2.70;;
84521;SDS011;74758;50.066;20.008;2024-01-15T06:50:29;6.00;;;2.80;;
84521;SDS011;74758;50.066;20.008;2024-01-15T06:52:30;6.10;;;3.80;;
84521;SDS011;74758;50.066;20.008;2024-01-15T06:54:32;5.40;;;3.50;;
84521;SDS011;74758;50.066;20.008;2024-01-15T06:56:33;3.80;;;2.50;;
84521;SDS011;74758;50.066;20.008;2024-01-15T06:58:35;4.40;;;3.20;;
84521;SDS011;74758;50.066;20.008;2024-01-15T07:00:37;4.70;;;2.90;;
84521;SDS011;74758;50.066;20.008;2024-01-15T07:02:39;5.00;;;2.70;;
84521;SDS011;74758;50.066;20.008;2024-01-15T07:04:41;6.40;;;3.50;;
84521;SDS011;74758;50.066;20.008;2024-01-15T07:06:44;6.10;;;3.60;;
84521;SDS011;74758;50.066;20.008;2024-01-15T07:08:45;8.40;;;4.00;;
84521;SDS011;74758;50.066;20.008;2024-01-15T07:10:47;3.90;;;2.70;;
84521;SDS011;74758;50.066;20.008;2024-01-15T07:12:49;6.00;;;3.20;;
84521;SDS011;74758;50.066;20.008;2024-01-15T07:14:50;5.40;;;2.80;;
84521;SDS011;74758;50.066;20.008;2024-01-15T07:16:52;3.40;;;2.50;;
84521;SDS011;74758;50.066;20.008;2024-01-15T07:18:54;3.60;;;3.10;;
84521;SDS011;74758;50.066;20.008;2024-01-15T07:20:56;3.80;;;2.50;;
84521;SDS011;74758;50.066;20.008;2024-01-15T07:22:58;5.50;;;4.10;;
84521;SDS011;74758;50.066;20.008;2024-01-15T07:24:59;4.10;;;2.30;;
84521;SDS011;74758;50.066;20.008;2024-01-15T07:27:01;3.50;;;2.20;;
84521;SDS011;74758;50.066;20.008;2024-01-15T07:29:03;5.40;;;3.60;;
84521;SDS011;74758;50.066;20.008;2024-01-15T07:31:05;5.10;;;3.10;;
84521;SDS011;74758;50.066;20.008;2024-01-15T07:33:08;3.70;;;2.90;;
84521;SDS011;74758;50.066;20.008;2024-01-15T07:35:10;4.90;;;3.30;;
84521;SDS011;74758;50.066;20.008;2024-01-15T07:37:12;5.00;;;3.20;;
84521;SDS011;74758;50.066;20.008;2024-01-15T07:39:13;5.70;;;3.30;;
84521;SDS011;74758;50.066;20.008;2024-01-15T07:41:15;5.40;;;3.00;;
84521;SDS011;74758;50.066;20.008;2024-01-15T07:43:17;4.20;;;3.00;;
84521;SDS011;74758;50.066;20.008;2024-01-15T07:45:18;3.60;;;2.20;;
84521;SDS011;74758;50.066;20.008;2024-01-15T07:47:20;3.90;;;2.80;;
84521;SDS011;74758;50.066;20.008;2024-01-15T07:49:22;3.70;;;2.30;;
84521;SDS011;74758;50.066;20.008;2024-01-15T07:51:25;3.40;;;2.30;;
84521;SDS011;74758;50.066;20.008;2024-01-15T07:53:27;5.40;;;2.50;;
84521;SDS011;74758;50.066;20.008;2024-01-15T07:55:29;5.10;;;2.80;;
84521;SDS011;74758;50.066;20.008;2024-01-15T07:57:31;4.60;;;2.80;;
84521;SDS011;74758;50.066;20.008;2024-01-15T07:59:33;5.30;;;2.60;;
84521;SDS011;74758;50.066;20.008;2024-01-15T08:01:36;3.70;;;3.00;;
84521;SDS011;74758;50.066;20.008;2024-01-15T08:03:38;7.50;;;3.40;;
84521;SDS011;74758;50.066;20.008;2024-01-15T08:05:40;5.70;;;3.70;;
84521;SDS011;74758;50.066;20.008;2024-01-15T08:07:42;4.70;;;3.10;;
84521;SDS011;74758;50.066;20.008;2024-01-15T08:09:43;5.70;;;4.20;;
84521;SDS011;74758;50.066;20.008;2024-01-15T08:11:45;5.90;;;2.60;;
84521;SDS011;74758;50.066;20.008;2024-01-15T08:13:47;8.40;;;4.80;;
84521;SDS011;74758;50.066;20.008;2024-01-15T08:15:49;5.70;;;4.10;;
84521;SDS011;74758;50.066;20.008;2024-01-15T08:17:51;7.70;;;5.00;;
84521;SDS011;74758;50.066;20.008;2024-01-15T08:19:53;5.60;;;4.00;;
84521;SDS011;74758;50.066;20.008;2024-01-15T08:21:56;6.30;;;3.70;;
84521;SDS011;74758;50.066;20.008;2024-01-15T08:23:57;5.40;;;3.70;;
84521;SDS011;74758;50.066;20.008;2024-01-15T08:26:03;6.50;;;3.00;;
84521;SDS011;74758;50.066;20.008;2024-01-15T08:28:06;6.60;;;3.40;;
84521;SDS011;74758;50.066;20.008;2024-01-15T08:30:09;8.10;;;5.30;;
84521;SDS011;74758;50.066;20.008;2024-01-15T08:32:12;5.70;;;4.00;;
84521;SDS011;74758;50.066;20.008;2024-01-15T08:34:16;3.60;;;2.60;;
84521;SDS011;74758;50.066;20.008;2024-01-15T08:36:18;9.30;;;4.10;;
84521;SDS011;74758;50.066;20.008;2024-01-15T08:38:20;8.10;;;4.20;;
84521;SDS011;74758;50.066;20.008;2024-01-15T08:40:22;4.50;;;3.60;;
84521;SDS011;74758;50.066;20.008;2024-01-15T08:42:24;6.30;;;3.40;;
84521;SDS011;74758;50.066;20.008;2024-01-15T08:44:26;4.50;;;2.80;;
84521;SDS011;74758;50.066;20.008;2024-01-15T08:46:27;8.10;;;4.30;;
84521;SDS011;74758;50.066;20.008;2024-01-15T08:48:29;8.20;;;4.30;;
84521;SDS011;74758;50.066;20.008;2024-01-15T08:50:32;9.10;;;5.00;;
84521;SDS011;74758;50.066;20.008;2024-01-15T08:52:34;6.00;;;4.00;;
84521;SDS011;74758;50.066;20.008;2024-01-15T08:54:35;7.70;;;4.40;;
84521;SDS011;74758;50.066;20.008;2024-01-15T08:56:37;9.60;;;5.50;;
84521;SDS011;74758;50.066;20.008;2024-01-15T08:58:38;5.40;;;3.10;;
84521;SDS011;74758;50.066;20.008;2024-01-15T09:00:40;8.30;;;5.00;;
84521;SDS011;74758;50.066;20.008;2024-01-15T09:02:42;9.10;;;5.30;;
84521;SDS011;74758;50.066;20.008;2024-01-15T09:04:44;7.00;;;4.70;;
84521;SDS011;74758;50.066;20.008;2024-01-15T09:06:46;8.90;;;4.20;;
84521;SDS011;74758;50.066;20.008;2024-01-15T09:08:48;10.30;;;5.50;;
84521;SDS011;74758;50.066;20.008;2024-01-15T09:10:50;6.60;;;3.90;;
84521;SDS011;74758;50.066;20.008;2024-01-15T09:12:51;7.20;;;3.20;;
84521;SDS011;74758;50.066;20.008;2024-01-15T09:14:53;5.90;;;3.40;;
84521;SDS011;74758;50.066;20.008;2024-01-15T09:16:55;6.60;;;4.40;;
84521;SDS011;74758;50.066;20.008;2024-01-15T09:18:58;7.70;;;6.40;;
84521;SDS011;74758;50.066;20.008;2024-01-15T09:21:00;6.30;;;4.10;;
84521;SDS011;74758;50.066;20.008;2024-01-15T09:23:04;7.60;;;4.90;;
84521;SDS011;74758;50.066;20.008;2024-01-15T09:25:06;5.20;;;3.40;;
84521;SDS011;74758;50.066;20.008;2024-01-15T09:27:08;4.70;;;3.10;;
84521;SDS011;74758;50.066;20.008;2024-01-15T09:29:10;8.00;;;5.10;;
84521;SDS011;74758;50.066;20.008;2024-01-15T09:31:11;6.00;;;4.00;;
84521;SDS011;74758;50.066;20.008;2024-01-15T09:33:13;5.00;;;4.10;;
84521;SDS011;74758;50.066;20.008;2024-01-15T09:35:15;6.50;;;3.70;;
84521;SDS011;74758;50.066;20.008;2024-01-15T09:37:17;7.70;;;4.00;;
84521;SDS011;74758;50.066;20.008;2024-01-15T09:39:39;5.80;;;3.40;;
84521;SDS011;74758;50.066;20.008;2024-01-15T09:41:40;9.20;;;4.80;;
84521;SDS011;74758;50.066;20.008;2024-01-15T09:43:43;7.50;;;3.80;;
84521;SDS011;74758;50.066;20.008;2024-01-15T09:45:46;10.00;;;6.20;;
84521;SDS011;74758;50.066;20.008;2024-01-15T09:47:47;6.10;;;5.50;;
84521;SDS011;74758;50.066;20.008;2024-01-15T09:49:50;6.50;;;3.60;;
84521;SDS011;74758;50.066;20.008;2024-01-15T09:51:51;7.40;;;4.40;;
84521;SDS011;74758;50.066;20.008;2024-01-15T09:54:06;7.40;;;4.60;;
84521;SDS011;74758;50.066;20.008;2024-01-15T09:56:08;9.40;;;4.90;;
84521;SDS011;74758;50.066;20.008;2024-01-15T09:58:11;10.20;;;5.00;;
84521;SDS011;74758;50.066;20.008;2024-01-15T10:00:14;9.10;;;5.30;;
84521;SDS011;74758;50.066;20.008;2024-01-15T10:02:18;8.60;;;4.20;;
84521;SDS011;74758;50.066;20.008;2024-01-15T10:04:20;10.30;;;5.00;;
84521;SDS011;74758;50.066;20.008;2024-01-15T10:06:23;6.70;;;4.10;;
84521;SDS011;74758;50.066;20.008;2024-01-15T10:08:25;8.80;;;4.40;;
84521;SDS011;74758;50.066;20.008;2024-01-15T10:10:27;8.80;;;5.60;;
84521;SDS011;74758;50.066;20.008;2024-01-15T10:12:28;8.40;;;3.90;;
84521;SDS011;74758;50.066;20.008;2024-01-15T10:14:30;7.10;;;4.30;;
84521;SDS011;74758;50.066;20.008;2024-01-15T10:16:32;10.10;;;5.40;;
84521;SDS011;74758;50.066;20.008;2024-01-15T10:18:33;7.50;;;4.10;;
84521;SDS011;74758;50.066;20.008;2024-01-15T10:20:35;6.40;;;3.90;;
84521;SDS011;74758;50.066;20.008;2024-01-15T10:22:43;7.80;;;4.10;;
84521;SDS011;74758;50.066;20.008;2024-01-15T10:24:48;11.30;;;5.90;;
84521;SDS011;74758;50.066;20.008;2024-01-15T10:26:50;10.90;;;5.50;;
84521;SDS011;74758;50.066;20.008;2024-01-15T10:28:52;8.00;;;4.20;;
84521;SDS011;74758;50.066;20.008;2024-01-15T10:30:55;9.10;;;5.30;;
84521;SDS011;74758;50.066;20.008;2024-01-15T10:32:59;11.70;;;5.90;;
84521;SDS011;74758;50.066;20.008;2024-01-15T10:35:03;11.20;;;6.70;;
84521;SDS011;74758;50.066;20.008;2024-01-15T10:37:09;8.60;;;6.90;;
84521;SDS011;74758;50.066;20.008;2024-01-15T10:39:13;11.50;;;5.30;;
84521;SDS011;74758;50.066;20.008;2024-01-15T10:41:15;6.00;;;2.90;;
84521;SDS011;74758;50.066;20.008;2024-01-15T10:43:17;11.70;;;7.00;;
84521;SDS011;74758;50.066;20.008;2024-01-15T10:45:19;10.60;;;5.20;;
84521;SDS011;74758;50.066;20.008;2024-01-15T10:47:21;7.00;;;3.90;;
84521;SDS011;74758;50.066;20.008;2024-01-15T10:49:23;8.20;;;4.20;;
84521;SDS011;74758;50.066;20.008;2024-01-15T10:51:33;8.90;;;4.70;;
84521;SDS011;74758;50.066;20.008;2024-01-15T10:53:35;5.70;;;3.70;;
84521;SDS011;74758;50.066;20.008;2024-01-15T10:55:41;6.50;;;3.60;;
84521;SDS011;74758;50.066;20.008;2024-01-15T10:57:44;8.60;;;4.60;;
84521;SDS011;74758;50.066;20.008;2024-01-15T10:59:46;9.10;;;5.00;;
84521;SDS011;74758;50.066;20.008;2024-01-15T11:01:49;7.80;;;3.20;;
84521;SDS011;74758;50.066;20.008;2024-01-15T11:03:51;7.40;;;5.00;;
84521;SDS011;74758;50.066;20.008;2024-01-15T11:05:56;9.60;;;5.10;;
84521;SDS011;74758;50.066;20.008;2024-01-15T11:07:58;7.10;;;4.30;;
84521;SDS011;74758;50.066;20.008;2024-01-15T11:10:03;7.10;;;3.90;;
84521;SDS011;74758;50.066;20.008;2024-01-15T11:12:12;7.30;;;4.60;;
84521;SDS011;74758;50.066;20.008;2024-01-15T11:14:33;6.60;;;2.90;;
84521;SDS011;74758;50.066;20.008;2024-01-15T11:16:57;8.20;;;5.00;;
84521;SDS011;74758;50.066;20.008;2024-01-15T11:21:43;4.20;;;2.90;;
84521;SDS011;74758;50.066;20.008;2024-01-15T11:24:03;6.20;;;3.40;;
84521;SDS011;74758;50.066;20.008;2024-01-15T11:28:48;11.70;;;6.10;;
84521;SDS011;74758;50.066;20.008;2024-01-15T11:30:50;8.40;;;4.30;;
84521;SDS011;74758;50.066;20.008;2024-01-15T11:32:52;8.10;;;4.20;;
84521;SDS011;74758;50.066;20.008;2024-01-15T11:34:58;6.40;;;4.00;;
84521;SDS011;74758;50.066;20.008;2024-01-15T11:37:02;6.80;;;3.50;;
84521;SDS011;74758;50.066;20.008;2024-01-15T11:41:29;7.70;;;3.80;;
84521;SDS011;74758;50.066;20.008;2024-01-15T11:43:31;8.60;;;4.00;;
84521;SDS011;74758;50.066;20.008;2024-01-15T11:45:34;9.40;;;5.10;;
84521;SDS011;74758;50.066;20.008;2024-01-15T11:50:14;12.50;;;6.00;;
84521;SDS011;74758;50.066;20.008;2024-01-15T11:52:20;8.00;;;4.20;;
84521;SDS011;74758;50.066;20.008;2024-01-15T11:54:25;6.80;;;4.10;;
84521;SDS011;74758;50.066;20.008;2024-01-15T11:56:31;6.90;;;4.30;;
84521;SDS011;74758;50.066;20.008;2024-01-15T11:58:34;6.70;;;3.30;;
84521;SDS011;74758;50.066;20.008;2024-01-15T12:00:43;7.30;;;4.40;;
84521;SDS011;74758;50.066;20.008;2024-01-15T12:02:47;11.30;;;5.80;;
84521;SDS011;74758;50.066;20.008;2024-01-15T12:04:50;5.80;;;3.10;;
84521;SDS011;74758;50.066;20.008;2024-01-15T12:06:51;9.30;;;6.00;;
84521;SDS011;74758;50.066;20.008;2024-01-15T12:09:05;9.70;;;5.10;;
84521;SDS011;74758;50.066;20.008;2024-01-15T12:11:10;9.70;;;4.30;;
84521;SDS011;74758;50.066;20.008;2024-01-15T12:13:15;9.50;;;5.30;;
84521;SDS011;74758;50.066;20.008;2024-01-15T12:15:19;9.30;;;4.10;;
84521;SDS011;74758;50.066;20.008;2024-01-15T12:17:21;10.20;;;4.50;;
84521;SDS011;74758;50.066;20.008;2024-01-15T12:19:23;9.70;;;6.70;;